Time;durP1;ratioP1;P1;durP2;ratioP2;P2;SDS_P1;SDS_P2;PMS_P1;PMS_P2;Temp;Humidity;BMP_temperature;BMP_pressure;BME280_temperature;BME280_humidity;BME280_pressure;Samples;Min_cycle;Max_cycle;Signal;HPM_P1;HPM_P2
2023/01/14 00:01:07;;;;;;;6.68;1.38;;;7.20;84.40;;;;;;5034685;28;20048;-68
2023/01/14 00:03:34;;;;;;;10.05;1.42;;;7.20;84.40;;;;;;5038006;28;20053;-70
2023/01/14 00:06:03;;;;;;;7.53;1.30;;;7.20;84.50;;;;;;5035632;28;20099;-70
2023/01/14 00:08:31;;;;;;;8.00;1.30;;;7.30;84.40;;;;;;5037378;28;20081;-70
2023/01/14 00:11:02;;;;;;;5.60;1.20;;;7.30;84.70;;;;;;5039468;28;20483;-70
2023/01/14 00:13:29;;;;;;;6.95;1.35;;;7.20;84.80;;;;;;5033061;28;20053;-69
2023/01/14 00:15:58;;;;;;;8.80;1.65;;;7.20;84.80;;;;;;5033891;28;20124;-70
2023/01/14 00:18:26;;;;;;;5.47;1.88;;;7.20;84.90;;;;;;5037133;28;20064;-68
2023/01/14 00:21:01;;;;;;;9.40;1.83;;;7.30;85.00;;;;;;5034980;28;20057;-69
2023/01/14 00:23:31;;;;;;;7.03;1.77;;;7.30;84.90;;;;;;5037093;28;20487;-69
2023/01/14 00:26:03;;;;;;;8.35;2.15;;;7.30;85.00;;;;;;5036984;28;20045;-70
2023/01/14 00:28:31;;;;;;;9.80;1.88;;;7.30;85.10;;;;;;5037686;28;20048;-69
2023/01/14 00:31:06;;;;;;;4.28;1.42;;;7.30;84.90;;;;;;5038278;28;20053;-68
2023/01/14 00:33:35;;;;;;;5.80;1.35;;;7.30;84.90;;;;;;5036805;28;20569;-69
2023/01/14 00:36:03;;;;;;;6.00;1.75;;;7.30;84.80;;;;;;5028396;28;20073;-69
2023/01/14 00:38:30;;;;;;;13.00;2.00;;;7.30;85.00;;;;;;5036815;28;20492;-69
2023/01/14 00:41:05;;;;;;;7.18;2.20;;;7.30;85.10;;;;;;5036049;28;20037;-69
2023/01/14 00:43:32;;;;;;;12.07;2.67;;;7.30;84.90;;;;;;5037522;28;20053;-70
2023/01/14 00:45:59;;;;;;;11.93;3.78;;;7.30;84.90;;;;;;5035771;28;20108;-69
2023/01/14 00:48:26;;;;;;;12.27;4.10;;;7.30;85.00;;;;;;5035671;28;20068;-70
2023/01/14 00:50:54;;;;;;;13.05;4.00;;;7.30;85.00;;;;;;5037840;28;20045;-70
2023/01/14 00:53:21;;;;;;;14.48;4.30;;;7.30;85.10;;;;;;5042272;28;20071;-70
2023/01/14 00:55:49;;;;;;;16.77;4.82;;;7.30;85.30;;;;;;5039024;28;20053;-71
2023/01/14 00:58:16;;;;;;;11.25;3.90;;;7.30;85.20;;;;;;5039494;28;20049;-68
2023/01/14 01:00:45;;;;;;;13.82;3.58;;;7.30;85.10;;;;;;5038935;28;20103;-69
2023/01/14 01:03:12;;;;;;;11.32;3.42;;;7.30;85.20;;;;;;5040238;28;20044;-69
2023/01/14 01:05:39;;;;;;;7.60;2.50;;;7.30;85.10;;;;;;5041056;28;20052;-69
2023/01/14 01:08:12;;;;;;;8.38;2.67;;;7.30;85.20;;;;;;5035888;28;20053;-69
2023/01/14 01:10:42;;;;;;;11.38;2.25;;;7.30;85.20;;;;;;5040057;28;20045;-70
2023/01/14 01:13:09;;;;;;;11.80;2.63;;;7.30;85.20;;;;;;5037704;28;20498;-69
2023/01/14 01:15:39;;;;;;;11.88;2.13;;;7.30;85.20;;;;;;5039755;28;20095;-69
2023/01/14 01:18:07;;;;;;;8.68;2.28;;;7.30;85.10;;;;;;5041180;28;20045;-69
2023/01/14 01:20:35;;;;;;;11.23;2.25;;;7.30;85.10;;;;;;5041486;28;20053;-69
2023/01/14 01:23:05;;;;;;;9.70;1.77;;;7.30;85.20;;;;;;5040167;28;20053;-70
2023/01/14 01:25:33;;;;;;;8.10;1.58;;;7.30;85.00;;;;;;5039775;28;20059;-70
2023/01/14 01:28:00;;;;;;;6.45;1.70;;;7.30;85.00;;;;;;5040761;28;20068;-70
2023/01/14 01:30:30;;;;;;;;;;;7.30;85.00;;;;;;5041725;28;20741;-71
2023/01/14 01:32:57;;;;;;;6.95;1.67;;;7.30;85.00;;;;;;5039736;28;19926;-71
2023/01/14 01:35:25;;;;;;;6.03;1.80;;;7.30;84.90;;;;;;5040311;28;20077;-70
2023/01/14 01:37:52;;;;;;;6.82;1.40;;;7.40;85.10;;;;;;5048270;28;20051;-69
2023/01/14 01:40:20;;;;;;;5.72;1.98;;;7.30;85.00;;;;;;5045549;28;20148;-69
2023/01/14 01:42:57;;;;;;;6.78;1.60;;;7.30;85.10;;;;;;5037525;28;20045;-69
2023/01/14 01:45:36;;;;;;;6.95;1.73;;;7.30;85.00;;;;;;5037218;28;20061;-69
2023/01/14 01:48:07;;;;;;;7.00;1.70;;;7.30;85.10;;;;;;5040703;28;20059;-69
2023/01/14 01:50:35;;;;;;;6.50;1.60;;;7.30;85.00;;;;;;5039523;28;20791;-70
2023/01/14 01:53:03;;;;;;;8.30;1.60;;;7.30;85.10;;;;;;5056104;28;20042;-70
2023/01/14 01:55:32;;;;;;;8.32;1.55;;;7.30;85.10;;;;;;5037587;28;20075;-70
2023/01/14 01:58:02;;;;;;;7.88;1.90;;;7.30;85.10;;;;;;5048977;28;20057;-70
2023/01/14 02:00:29;;;;;;;4.55;1.40;;;7.30;85.20;;;;;;5040146;28;20099;-69
2023/01/14 02:03:00;;;;;;;8.95;1.77;;;7.30;85.10;;;;;;5035680;28;20136;-70
2023/01/14 02:05:28;;;;;;;6.97;1.75;;;7.30;84.90;;;;;;5053317;28;20423;-70
2023/01/14 02:07:58;;;;;;;7.75;2.10;;;7.30;85.00;;;;;;5034994;28;20057;-69
2023/01/14 02:10:32;;;;;;;9.52;1.50;;;7.30;84.90;;;;;;5038638;28;20425;-71
2023/01/14 02:13:15;;;;;;;7.97;1.65;;;7.30;84.90;;;;;;5039045;28;20057;-69
2023/01/14 02:15:54;;;;;;;6.70;1.70;;;7.30;84.90;;;;;;5041913;28;20041;-60
2023/01/14 02:18:36;;;;;;;6.93;1.70;;;7.30;84.80;;;;;;5054438;28;20061;-61
2023/01/14 02:21:11;;;;;;;5.30;1.33;;;7.30;84.70;;;;;;5038137;28;20044;-61
2023/01/14 02:24:06;;;;;;;8.68;2.38;;;7.30;84.80;;;;;;5040343;28;20507;-60
2023/01/14 02:27:05;;;;;;;8.32;1.50;;;7.30;84.80;;;;;;5038934;28;20046;-61
2023/01/14 02:29:46;;;;;;;8.95;1.63;;;7.30;84.80;;;;;;5049391;28;20102;-61
2023/01/14 02:32:17;;;;;;;6.88;1.40;;;7.30;84.70;;;;;;5055275;28;20420;-61
2023/01/14 02:34:52;;;;;;;6.00;1.45;;;7.30;84.70;;;;;;5054649;28;20562;-65
2023/01/14 02:37:28;;;;;;;6.15;1.30;;;7.30;84.70;;;;;;5047093;28;20049;-60
2023/01/14 02:40:02;;;;;;;7.32;1.92;;;7.40;84.60;;;;;;5036806;28;20315;-61
2023/01/14 02:45:29;;;;;;;6.63;1.38;;;7.30;84.50;;;;;;5053731;28;20064;-61
2023/01/14 02:48:00;;;;;;;5.50;0.93;;;7.30;84.40;;;;;;5043152;28;20480;-61
2023/01/14 02:50:35;;;;;;;7.05;1.42;;;7.30;84.40;;;;;;5048749;28;20061;-61
2023/01/14 02:53:09;;;;;;;4.65;1.25;;;7.30;84.50;;;;;;5047717;28;20124;-61
2023/01/14 02:55:38;;;;;;;6.93;1.67;;;7.30;84.40;;;;;;5043998;28;20044;-64
2023/01/14 02:58:35;;;;;;;11.02;1.73;;;7.30;84.40;;;;;;5046115;28;20048;-64
2023/01/14 03:01:16;;;;;;;10.20;1.70;;;7.30;84.40;;;;;;5039459;28;20877;-64
2023/01/14 03:04:05;;;;;;;8.07;1.60;;;7.30;84.40;;;;;;5055266;28;20055;-64
2023/01/14 03:06:42;;;;;;;9.35;1.73;;;7.30;84.40;;;;;;5050202;28;20045;-63
2023/01/14 03:09:17;;;;;;;6.05;1.48;;;7.30;84.20;;;;;;5054173;28;20055;-64
2023/01/14 03:11:50;;;;;;;8.02;1.42;;;7.30;84.20;;;;;;5036857;28;20048;-65
2023/01/14 03:14:24;;;;;;;9.40;1.20;;;7.30;84.30;;;;;;5052348;28;20072;-63
2023/01/14 03:16:57;;;;;;;7.43;1.70;;;7.30;84.10;;;;;;5039942;28;20044;-64
2023/01/14 03:19:28;;;;;;;8.15;1.42;;;7.30;84.10;;;;;;5042384;28;20049;-63
2023/01/14 03:21:58;;;;;;;7.20;1.48;;;7.20;84.10;;;;;;5035830;28;20092;-63
2023/01/14 03:24:31;;;;;;;3.35;0.90;;;7.20;84.10;;;;;;5042879;28;20474;-63
2023/01/14 03:27:04;;;;;;;8.38;1.90;;;7.30;84.10;;;;;;5046032;28;20057;-68
2023/01/14 03:29:37;;;;;;;8.93;1.90;;;7.20;83.90;;;;;;5046236;28;20064;-69
2023/01/14 03:32:09;;;;;;;6.68;1.70;;;7.30;84.00;;;;;;5063525;28;20063;-69
2023/01/14 03:34:41;;;;;;;8.00;1.83;;;7.20;83.90;;;;;;5061428;28;20065;-70
2023/01/14 03:37:12;;;;;;;6.40;1.80;;;7.20;83.90;;;;;;5055138;28;20053;-61
2023/01/14 03:39:42;;;;;;;8.07;1.73;;;7.20;83.90;;;;;;5037511;28;20057;-61
2023/01/14 03:42:21;;;;;;;7.22;1.63;;;7.20;83.70;;;;;;5039358;28;20048;-61
2023/01/14 03:44:59;;;;;;;8.43;1.70;;;7.20;83.70;;;;;;5038602;28;20041;-61
2023/01/14 03:47:28;;;;;;;6.32;1.77;;;7.20;83.70;;;;;;5037563;28;20053;-59
2023/01/14 03:49:59;;;;;;;8.57;1.63;;;7.20;83.50;;;;;;5038827;28;20048;-60
2023/01/14 03:52:39;;;;;;;8.90;2.08;;;7.20;83.60;;;;;;5038293;28;20519;-58
2023/01/14 03:55:10;;;;;;;;;;;7.20;83.60;;;;;;5038104;28;20119;-60
2023/01/14 03:57:43;;;;;;;6.80;1.80;;;7.20;83.50;;;;;;5040176;28;19935;-59
2023/01/14 04:00:15;;;;;;;7.18;1.40;;;7.20;83.40;;;;;;5039334;28;20099;-60
2023/01/14 04:02:45;;;;;;;4.35;1.27;;;7.20;83.50;;;;;;5039780;28;20723;-59
2023/01/14 04:05:13;;;;;;;13.05;1.98;;;7.20;83.40;;;;;;5039315;28;20049;-59
2023/01/14 04:07:40;;;;;;;7.78;1.50;;;7.20;83.40;;;;;;5039770;28;20052;-59
2023/01/14 04:10:08;;;;;;;6.55;1.85;;;7.10;83.60;;;;;;5037724;28;20425;-63
2023/01/14 04:15:20;;;;;;;8.50;1.67;;;7.20;83.60;;;;;;5038017;28;20052;-58
2023/01/14 04:15:20;;;;;;;9.68;1.85;;;7.10;83.70;;;;;;5046009;28;20053;-59
2023/01/14 04:17:49;;;;;;;5.53;1.42;;;7.10;83.70;;;;;;5045651;28;20104;-58
2023/01/14 04:20:16;;;;;;;8.43;1.92;;;7.10;83.60;;;;;;5040276;28;20049;-59
2023/01/14 04:22:43;;;;;;;11.80;1.83;;;7.10;83.60;;;;;;5035589;28;20064;-59
2023/01/14 04:25:10;;;;;;;7.43;1.40;;;7.10;83.60;;;;;;5038070;28;20049;-60
2023/01/14 04:27:36;;;;;;;7.47;1.50;;;7.00;83.50;;;;;;5037785;28;20045;-70
2023/01/14 04:30:04;;;;;;;9.35;1.75;;;7.00;83.60;;;;;;5037322;28;20482;-70
2023/01/14 04:32:31;;;;;;;8.07;1.20;;;7.00;83.40;;;;;;5039334;28;20070;-59
2023/01/14 04:34:59;;;;;;;10.65;1.52;;;7.00;83.50;;;;;;5038428;28;20061;-58
2023/01/14 04:37:26;;;;;;;7.63;1.42;;;7.00;83.30;;;;;;5039279;28;20049;-58
2023/01/14 04:39:53;;;;;;;7.22;1.65;;;6.90;83.40;;;;;;5037159;28;20416;-59
2023/01/14 04:42:28;;;;;;;8.68;1.52;;;6.90;83.50;;;;;;5032896;28;20052;-69
2023/01/14 04:44:56;;;;;;;6.75;1.50;;;6.90;83.50;;;;;;5036867;28;20124;-69
2023/01/14 04:47:24;;;;;;;7.82;1.60;;;6.90;83.40;;;;;;5032202;28;20053;-69
2023/01/14 04:49:51;;;;;;;7.32;1.23;;;6.90;83.30;;;;;;5037806;28;20484;-69
2023/01/14 04:52:19;;;;;;;6.78;1.20;;;6.90;83.30;;;;;;5034823;28;20496;-69
2023/01/14 04:54:46;;;;;;;10.82;2.33;;;6.90;83.40;;;;;;5035839;28;20066;-68
2023/01/14 04:57:13;;;;;;;5.07;1.10;;;6.90;83.40;;;;;;5035948;28;20056;-62
2023/01/14 04:59:40;;;;;;;8.15;1.17;;;6.90;83.40;;;;;;5037776;28;20045;-62
2023/01/14 05:02:07;;;;;;;7.53;1.50;;;6.80;83.30;;;;;;5037906;28;21002;-62
2023/01/14 05:04:34;;;;;;;9.45;1.58;;;6.90;83.40;;;;;;5038939;28;20568;-64
2023/01/14 05:07:02;;;;;;;10.77;1.58;;;6.80;83.30;;;;;;5038388;28;20595;-64
2023/01/14 05:09:31;;;;;;;8.63;1.70;;;6.80;83.60;;;;;;5038825;28;20073;-63
2023/01/14 05:11:58;;;;;;;7.80;1.55;;;6.90;83.50;;;;;;5034764;28;20041;-70
2023/01/14 05:14:24;;;;;;;8.27;1.67;;;6.90;83.60;;;;;;5039546;28;20060;-71
2023/01/14 05:16:51;;;;;;;6.30;1.38;;;6.90;83.70;;;;;;5037128;28;20037;-59
2023/01/14 05:19:18;;;;;;;6.75;1.38;;;6.90;83.60;;;;;;5036717;28;20044;-60
2023/01/14 05:21:45;;;;;;;8.45;1.63;;;6.80;83.60;;;;;;5036817;28;20033;-64
2023/01/14 05:24:12;;;;;;;10.60;1.90;;;6.90;83.80;;;;;;5042690;28;20400;-63
2023/01/14 05:26:40;;;;;;;7.55;1.35;;;6.80;83.70;;;;;;5044782;28;20496;-70
2023/01/14 05:29:07;;;;;;;9.60;1.80;;;6.80;83.80;;;;;;5048492;28;20045;-69
2023/01/14 05:31:34;;;;;;;8.32;1.58;;;6.90;83.70;;;;;;5048672;28;20411;-62
2023/01/14 05:34:01;;;;;;;11.60;1.73;;;6.80;83.70;;;;;;5049334;28;20045;-61
2023/01/14 05:36:28;;;;;;;8.82;2.17;;;6.80;83.70;;;;;;5056701;28;20071;-61
2023/01/14 05:38:55;;;;;;;6.82;1.65;;;6.80;83.60;;;;;;5059124;28;20041;-61
2023/01/14 05:41:22;;;;;;;8.30;1.70;;;6.80;83.60;;;;;;5055535;28;20053;-61
2023/01/14 05:46:34;;;;;;;6.00;1.48;;;6.80;83.50;;;;;;5042280;28;20048;-71
2023/01/14 05:49:01;;;;;;;7.88;1.58;;;6.80;83.60;;;;;;5040103;28;20110;-69
2023/01/14 05:51:28;;;;;;;9.93;1.55;;;6.80;83.60;;;;;;5042652;28;20064;-69
2023/01/14 05:53:55;;;;;;;10.27;1.58;;;6.80;83.80;;;;;;5039609;28;20061;-70
2023/01/14 05:56:22;;;;;;;7.57;1.90;;;6.80;83.70;;;;;;5042226;28;20103;-69
2023/01/14 05:58:51;;;;;;;8.38;1.70;;;6.80;83.90;;;;;;5041729;28;20056;-70
2023/01/14 06:06:50;;;;;;;8.82;1.95;;;6.70;84.00;;;;;;5043520;28;20045;-71
2023/01/14 06:09:19;;;;;;;9.45;1.45;;;6.70;83.90;;;;;;5055053;28;20040;-70
2023/01/14 06:12:01;;;;;;;11.52;1.67;;;6.70;83.90;;;;;;5062341;28;20063;-69
2023/01/14 06:14:30;;;;;;;6.50;1.33;;;6.70;84.00;;;;;;5054373;28;20057;-71
2023/01/14 06:16:57;;;;;;;7.78;2.50;;;6.70;84.10;;;;;;5047490;28;20033;-70
2023/01/14 06:19:24;;;;;;;10.57;1.88;;;6.70;84.00;;;;;;5048904;28;20128;-71
2023/01/14 06:21:51;;;;;;;9.60;2.13;;;6.70;83.90;;;;;;5050008;28;20114;-68
2023/01/14 06:24:19;;;;;;;8.18;2.00;;;6.70;83.90;;;;;;5039583;28;20057;-70
2023/01/14 06:26:46;;;;;;;11.43;1.85;;;6.60;84.00;;;;;;5039748;28;20048;-70
2023/01/14 06:29:13;;;;;;;8.82;1.65;;;6.60;84.10;;;;;;5040932;28;20045;-70
2023/01/14 06:31:42;;;;;;;9.52;2.15;;;6.60;84.20;;;;;;5042708;28;20048;-71
2023/01/14 06:34:10;;;;;;;9.77;2.25;;;6.60;84.30;;;;;;5041791;28;20041;-71
2023/01/14 06:36:37;;;;;;;10.73;1.73;;;6.60;84.30;;;;;;5041360;28;20519;-71
2023/01/14 06:39:04;;;;;;;7.70;2.45;;;6.60;84.10;;;;;;5034185;28;20044;-70
2023/01/14 06:41:31;;;;;;;10.02;2.03;;;6.70;84.00;;;;;;5037724;28;20057;-70
2023/01/14 06:43:58;;;;;;;7.47;1.52;;;6.70;83.90;;;;;;5037352;28;20041;-70
2023/01/14 06:46:25;;;;;;;4.78;1.63;;;6.70;84.00;;;;;;5039098;28;20053;-60
2023/01/14 06:48:53;;;;;;;11.95;2.10;;;6.60;84.00;;;;;;5039973;28;20044;-61
2023/01/14 06:51:21;;;;;;;9.73;1.98;;;6.70;84.00;;;;;;5038295;28;20511;-61
2023/01/14 06:53:48;;;;;;;6.45;1.73;;;6.70;84.00;;;;;;5036927;28;20077;-62
2023/01/14 06:56:17;;;;;;;9.32;1.90;;;6.70;83.90;;;;;;5037747;28;20074;-60
2023/01/14 06:58:46;;;;;;;9.68;1.75;;;6.70;83.90;;;;;;5040458;28;20050;-61
2023/01/14 07:01:13;;;;;;;8.65;1.80;;;6.60;84.00;;;;;;5051792;28;20060;-62
2023/01/14 07:03:41;;;;;;;10.50;1.85;;;6.60;84.10;;;;;;5045339;28;20059;-61
2023/01/14 07:06:09;;;;;;;8.90;1.83;;;6.60;84.00;;;;;;5062393;28;20053;-61
2023/01/14 07:08:37;;;;;;;7.50;1.73;;;6.60;84.10;;;;;;5041968;28;20422;-61
2023/01/14 07:11:04;;;;;;;6.70;1.90;;;6.60;84.10;;;;;;5046971;28;20056;-61
2023/01/14 07:13:36;;;;;;;10.90;2.05;;;6.60;84.00;;;;;;5040479;28;20049;-61
2023/01/14 07:16:03;;;;;;;11.63;2.22;;;6.60;84.10;;;;;;5038791;28;20042;-59
2023/01/14 07:18:30;;;;;;;10.30;3.00;;;6.60;84.10;;;;;;5040456;28;20067;-59
2023/01/14 07:20:57;;;;;;;14.65;3.72;;;6.60;84.20;;;;;;5039079;28;20045;-59
2023/01/14 07:23:27;;;;;;;9.07;2.72;;;6.60;84.20;;;;;;5039961;28;20056;-59
2023/01/14 07:25:55;;;;;;;12.65;3.00;;;6.60;84.30;;;;;;5039922;28;20045;-71
2023/01/14 07:28:23;;;;;;;12.85;2.85;;;6.60;84.30;;;;;;5040956;28;20053;-69
2023/01/14 07:30:51;;;;;;;11.25;2.60;;;6.60;84.30;;;;;;5037343;28;20048;-70
2023/01/14 07:33:18;;;;;;;7.63;1.80;;;6.60;84.20;;;;;;5039496;28;20128;-71
2023/01/14 07:35:47;;;;;;;7.97;2.05;;;6.70;84.30;;;;;;5039726;28;20051;-70
2023/01/14 07:38:14;;;;;;;11.45;2.05;;;6.70;84.20;;;;;;5039099;28;20467;-71
2023/01/14 07:40:42;;;;;;;14.15;2.25;;;6.70;84.10;;;;;;5041143;28;20045;-71
2023/01/14 07:43:09;;;;;;;8.45;2.05;;;6.70;84.20;;;;;;5036653;28;20057;-71
2023/01/14 07:45:36;;;;;;;10.25;2.60;;;6.70;84.20;;;;;;5039951;28;20052;-71
2023/01/14 07:48:03;;;;;;;11.68;3.58;;;6.80;84.10;;;;;;5042142;28;20053;-71
2023/01/14 07:50:30;;;;;;;13.23;3.47;;;6.80;84.10;;;;;;5038594;28;20053;-71
2023/01/14 07:52:59;;;;;;;10.18;3.15;;;6.80;84.10;;;;;;5036394;28;20107;-70
2023/01/14 07:55:27;;;;;;;10.85;3.38;;;6.80;84.10;;;;;;5040525;28;20053;-70
2023/01/14 07:57:56;;;;;;;7.93;2.92;;;6.80;84.10;;;;;;5040810;28;20563;-69
2023/01/14 08:00:23;;;;;;;10.57;3.70;;;6.80;84.20;;;;;;5034216;28;20069;-71
2023/01/14 08:02:50;;;;;;;10.95;2.40;;;6.90;84.20;;;;;;5035756;28;20057;-69
2023/01/14 08:05:17;;;;;;;10.23;3.42;;;6.80;84.20;;;;;;5033734;28;20045;-70
2023/01/14 08:07:44;;;;;;;8.35;2.15;;;6.90;84.30;;;;;;5040457;28;20137;-69
2023/01/14 08:10:12;;;;;;;12.52;2.47;;;6.90;84.10;;;;;;5027988;28;20053;-70
2023/01/14 08:12:39;;;;;;;10.02;2.45;;;6.90;84.10;;;;;;5036241;28;20057;-68
2023/01/14 08:15:11;;;;;;;7.72;2.08;;;6.90;84.10;;;;;;5035842;28;20052;-70
2023/01/14 08:17:38;;;;;;;8.85;2.30;;;6.90;84.10;;;;;;5038349;28;20045;-63
2023/01/14 08:20:06;;;;;;;14.00;2.20;;;7.00;84.10;;;;;;5037440;28;20053;-64
2023/01/14 08:22:33;;;;;;;10.13;2.33;;;7.00;84.10;;;;;;5039355;28;20049;-65
2023/01/14 08:25:00;;;;;;;11.15;2.40;;;7.00;84.10;;;;;;5036294;28;20423;-64
2023/01/14 08:27:28;;;;;;;10.60;3.08;;;7.00;84.20;;;;;;5037333;28;20115;-64
2023/01/14 08:29:55;;;;;;;13.00;3.05;;;7.10;84.20;;;;;;5036986;28;20057;-64
2023/01/14 08:32:24;;;;;;;11.15;3.50;;;7.00;84.20;;;;;;5039380;28;20060;-63
2023/01/14 08:34:51;;;;;;;10.52;2.30;;;7.10;84.20;;;;;;5036317;28;20121;-64
2023/01/14 08:37:18;;;;;;;12.27;2.28;;;7.10;84.20;;;;;;5037353;28;20041;-61
2023/01/14 08:39:45;;;;;;;9.82;2.28;;;7.10;84.20;;;;;;5037693;28;20056;-61
2023/01/14 08:42:12;;;;;;;9.77;1.65;;;7.10;84.20;;;;;;5036469;28;20583;-61
2023/01/14 08:44:39;;;;;;;11.63;2.22;;;7.10;84.20;;;;;;5038195;28;20496;-61
2023/01/14 08:47:06;;;;;;;9.52;1.85;;;7.20;84.10;;;;;;5037328;28;20061;-59
2023/01/14 08:49:35;;;;;;;12.18;2.03;;;7.20;84.10;;;;;;5036711;28;20045;-61
2023/01/14 08:52:02;;;;;;;10.88;2.20;;;7.20;84.00;;;;;;5035432;28;20045;-61
2023/01/14 08:54:28;;;;;;;8.55;1.75;;;7.20;84.10;;;;;;5039073;28;20148;-61
2023/01/14 08:56:56;;;;;;;7.70;1.70;;;7.30;84.20;;;;;;5037711;28;20050;-62
2023/01/14 08:59:23;;;;;;;12.30;2.65;;;7.30;84.20;;;;;;5040558;28;20041;-61
2023/01/14 09:01:50;;;;;;;12.48;2.03;;;7.20;84.20;;;;;;5025664;28;20053;-70
2023/01/14 09:04:17;;;;;;;10.18;2.78;;;7.30;84.20;;;;;;5035817;28;20060;-70
2023/01/14 09:17:49;;;;;;;10.15;1.80;;;7.40;84.20;;;;;;5048051;28;20049;-60
2023/01/14 09:20:18;;;;;;;5.88;1.48;;;7.40;84.20;;;;;;5051846;28;20044;-61
2023/01/14 09:22:47;;;;;;;9.70;1.63;;;7.40;84.20;;;;;;5043222;28;20041;-61
2023/01/14 09:25:13;;;;;;;9.23;1.50;;;7.40;84.30;;;;;;5050452;28;20496;-70
2023/01/14 09:27:40;;;;;;;9.00;1.73;;;7.40;84.40;;;;;;5051708;28;20490;-68
2023/01/14 09:30:08;;;;;;;9.75;1.85;;;7.40;84.30;;;;;;5043292;28;20045;-70
2023/01/14 09:32:39;;;;;;;11.68;2.53;;;7.40;84.50;;;;;;5064971;28;20048;-70
2023/01/14 09:35:06;;;;;;;;;;;7.40;84.50;;;;;;5052465;28;20122;-71
2023/01/14 09:37:34;;;;;;;8.75;1.90;;;7.40;84.40;;;;;;5052192;28;19927;-69
2023/01/14 09:40:03;;;;;;;8.65;1.83;;;7.40;84.40;;;;;;5047348;28;20478;-70
2023/01/14 09:42:35;;;;;;;8.00;1.40;;;7.40;84.30;;;;;;5047498;28;20061;-70
2023/01/14 09:45:10;;;;;;;7.30;2.28;;;7.40;84.30;;;;;;5041145;28;20045;-69
2023/01/14 09:47:37;;;;;;;7.82;1.63;;;7.50;84.30;;;;;;5050344;28;20045;-70
2023/01/14 09:50:07;;;;;;;6.57;1.52;;;7.40;84.40;;;;;;5051424;28;20051;-69
2023/01/14 09:52:47;;;;;;;5.63;1.50;;;7.50;84.50;;;;;;5044770;28;20907;-71
2023/01/14 09:55:22;;;;;;;9.48;2.13;;;7.50;84.60;;;;;;5052131;28;20044;-60
2023/01/14 09:57:54;;;;;;;5.10;1.45;;;7.40;84.70;;;;;;5060386;28;20053;-59
2023/01/14 10:00:30;;;;;;;8.00;1.80;;;7.40;84.70;;;;;;5030821;28;20053;-59
2023/01/14 10:03:07;;;;;;;7.82;1.65;;;7.40;84.80;;;;;;5040607;28;20059;-60
2023/01/14 10:05:38;;;;;;;8.98;1.50;;;7.40;84.90;;;;;;5041988;28;20053;-60
2023/01/14 10:08:11;;;;;;;6.53;1.42;;;7.50;85.10;;;;;;5041082;28;20049;-61
2023/01/14 10:10:42;;;;;;;8.55;1.52;;;7.50;85.10;;;;;;5042524;28;20063;-65
2023/01/14 10:13:14;;;;;;;7.30;1.92;;;7.50;85.10;;;;;;5041030;28;20408;-65
2023/01/14 10:15:46;;;;;;;7.53;1.50;;;7.50;85.10;;;;;;5041815;28;20502;-64
2023/01/14 10:18:19;;;;;;;9.05;2.25;;;7.50;85.30;;;;;;5042702;28;20135;-65
2023/01/14 10:20:56;;;;;;;6.97;1.50;;;7.50;85.10;;;;;;5034642;28;20057;-71
2023/01/14 10:23:25;;;;;;;5.70;1.83;;;7.50;85.20;;;;;;5039633;28;20041;-69
2023/01/14 10:25:55;;;;;;;6.53;1.40;;;7.60;85.30;;;;;;5038980;28;20473;-59
2023/01/14 10:28:25;;;;;;;6.93;2.17;;;7.50;85.20;;;;;;5041238;28;20042;-59
2023/01/14 10:30:52;;;;;;;3.88;1.13;;;7.60;85.30;;;;;;5038553;28;20049;-72
2023/01/14 10:33:21;;;;;;;7.65;1.10;;;7.60;85.40;;;;;;5040198;28;20067;-69
2023/01/14 10:35:53;;;;;;;3.22;0.88;;;7.60;85.50;;;;;;5049794;28;20040;-62
2023/01/14 10:38:23;;;;;;;4.30;1.25;;;7.60;85.50;;;;;;5043258;28;20141;-61
2023/01/14 10:40:52;;;;;;;6.30;1.13;;;7.60;85.60;;;;;;5067257;28;20132;-69
2023/01/14 10:43:28;;;;;;;7.93;1.55;;;7.60;85.50;;;;;;5047526;28;20494;-69
2023/01/14 10:45:55;;;;;;;4.05;1.10;;;7.60;85.60;;;;;;5046846;28;20056;-70
2023/01/14 10:48:24;;;;;;;4.18;1.13;;;7.70;85.70;;;;;;5043744;28;20062;-69
2023/01/14 10:50:52;;;;;;;5.78;1.40;;;7.60;85.80;;;;;;5038740;28;20075;-58
2023/01/14 10:53:22;;;;;;;5.30;1.20;;;7.70;85.90;;;;;;5039714;28;20056;-59
2023/01/14 10:55:53;;;;;;;5.90;1.50;;;7.70;86.00;;;;;;5038303;28;20091;-70
2023/01/14 10:58:28;;;;;;;3.42;1.15;;;7.70;86.00;;;;;;5041030;28;20083;-68
2023/01/14 11:01:03;;;;;;;2.95;0.90;;;7.70;86.10;;;;;;5042198;28;20057;-62
2023/01/14 11:03:32;;;;;;;4.10;1.02;;;7.70;86.20;;;;;;5040947;28;20061;-61
2023/01/14 11:06:03;;;;;;;5.28;1.05;;;7.70;86.20;;;;;;5040926;28;20052;-64
2023/01/14 11:08:35;;;;;;;7.45;1.67;;;7.70;86.10;;;;;;5042058;28;20077;-64
2023/01/14 11:11:05;;;;;;;4.80;1.38;;;7.70;86.30;;;;;;5039793;28;20060;-62
2023/01/14 11:13:41;;;;;;;4.32;1.25;;;7.80;86.40;;;;;;5041425;28;20053;-62
2023/01/14 11:16:28;;;;;;;4.40;1.40;;;7.80;86.30;;;;;;5038076;28;20053;-63
2023/01/14 11:18:58;;;;;;;5.97;1.92;;;7.80;86.20;;;;;;5038017;28;20077;-64
2023/01/14 11:21:26;;;;;;;4.18;0.93;;;7.90;86.30;;;;;;5040904;28;20536;-59
2023/01/14 11:23:56;;;;;;;4.50;1.10;;;7.90;86.20;;;;;;5038764;28;20057;-59
2023/01/14 11:26:25;;;;;;;5.23;1.70;;;7.90;86.20;;;;;;5040275;28;20041;-64
2023/01/14 11:29:02;;;;;;;3.17;1.45;;;8.00;86.10;;;;;;5035548;28;20827;-65
2023/01/14 11:31:31;;;;;;;6.82;1.83;;;8.00;86.10;;;;;;5035051;28;20055;-63
2023/01/14 11:33:59;;;;;;;3.15;1.20;;;8.10;86.10;;;;;;5037711;28;20045;-65
2023/01/14 11:36:29;;;;;;;2.85;1.38;;;8.10;86.10;;;;;;5036776;28;20047;-60
2023/01/14 11:38:58;;;;;;;7.65;1.17;;;8.10;86.00;;;;;;5035529;28;20048;-63
2023/01/14 11:41:35;;;;;;;3.00;1.00;;;8.10;86.00;;;;;;5038660;28;20079;-64
2023/01/14 11:44:05;;;;;;;5.50;1.13;;;8.10;86.00;;;;;;5036111;28;20048;-63
2023/01/14 11:46:34;;;;;;;;;;;8.20;86.00;;;;;;5040746;28;20052;-63
2023/01/14 11:49:05;;;;;;;4.15;1.30;;;8.20;86.00;;;;;;5042397;28;19932;-65
2023/01/14 11:51:32;;;;;;;;;;;8.20;86.00;;;;;;5039654;28;20061;-60
2023/01/14 11:53:59;;;;;;;5.70;1.40;;;8.20;85.90;;;;;;5037844;28;19928;-60
2023/01/14 11:56:33;;;;;;;4.85;1.23;;;8.20;85.80;;;;;;5035907;28;20049;-61
2023/01/14 11:59:08;;;;;;;3.47;1.33;;;8.20;85.80;;;;;;5037691;28;20049;-60
2023/01/14 12:01:40;;;;;;;3.58;1.08;;;8.30;85.60;;;;;;5038247;28;20048;-59
2023/01/14 12:04:18;;;;;;;4.85;1.20;;;8.30;85.50;;;;;;5037760;28;20049;-59
2023/01/14 12:06:47;;;;;;;3.70;0.90;;;8.30;85.40;;;;;;5040366;28;20049;-61
2023/01/14 12:09:21;;;;;;;3.17;0.88;;;8.30;85.40;;;;;;5046766;28;20102;-60
2023/01/14 12:11:55;;;;;;;4.22;0.90;;;8.30;85.20;;;;;;5045709;28;20053;-61
2023/01/14 12:17:24;;;;;;;5.35;1.38;;;8.40;85.20;;;;;;5051041;28;20056;-61
2023/01/14 12:19:57;;;;;;;5.03;1.38;;;8.40;85.10;;;;;;5047594;28;20094;-61
2023/01/14 12:22:31;;;;;;;4.35;1.25;;;8.40;85.00;;;;;;5040735;28;20075;-69
2023/01/14 12:25:05;;;;;;;4.03;1.58;;;8.40;85.00;;;;;;5061974;28;20059;-69
2023/01/14 12:27:44;;;;;;;6.07;1.83;;;8.50;84.90;;;;;;5046061;28;20570;-70
2023/01/14 12:30:42;;;;;;;7.20;2.42;;;8.40;84.80;;;;;;5045522;28;20544;-70
2023/01/14 12:33:17;;;;;;;6.47;1.77;;;8.40;84.70;;;;;;5048846;28;20048;-71
2023/01/14 12:35:49;;;;;;;5.45;1.88;;;8.50;84.60;;;;;;5041402;28;20501;-71
2023/01/14 12:46:42;;;;;;;10.43;3.80;;;8.50;84.60;;;;;;5051635;28;20483;-59
2023/01/14 12:49:09;;;;;;;7.13;2.72;;;8.50;84.50;;;;;;5050110;28;20084;-59
2023/01/14 12:51:40;;;;;;;7.20;2.78;;;8.50;84.50;;;;;;5052902;28;20049;-61
2023/01/14 12:54:19;;;;;;;5.72;1.98;;;8.50;84.40;;;;;;5050881;28;20049;-60
2023/01/14 12:56:52;;;;;;;8.43;2.35;;;8.60;84.30;;;;;;5053928;28;20047;-70
2023/01/14 12:59:23;;;;;;;6.53;2.42;;;8.60;84.40;;;;;;5047128;28;20041;-70
2023/01/14 13:01:55;;;;;;;5.57;1.40;;;8.50;84.40;;;;;;5041501;28;20037;-59
2023/01/14 13:04:26;;;;;;;4.05;1.63;;;8.50;84.40;;;;;;5040091;28;20052;-59
2023/01/14 13:06:57;;;;;;;5.28;1.45;;;8.50;84.50;;;;;;5048264;28;20040;-59
2023/01/14 13:09:27;;;;;;;;;;;8.50;84.80;;;;;;5054526;28;20048;-59
2023/01/14 13:11:56;;;;;;;2.90;1.23;;;8.50;85.00;;;;;;5041287;28;19928;-63
2023/01/14 13:14:34;;;;;;;2.80;1.10;;;8.50;85.10;;;;;;5043619;28;20067;-63
2023/01/14 13:17:06;;;;;;;5.57;1.83;;;8.50;85.30;;;;;;5044491;28;20127;-64
2023/01/14 13:19:49;;;;;;;6.70;2.72;;;8.50;85.30;;;;;;5039443;28;20132;-64
2023/01/14 13:22:55;;;;;;;5.05;1.60;;;8.50;85.50;;;;;;5052314;28;20044;-59
2023/01/14 13:25:37;;;;;;;5.53;2.05;;;8.50;85.60;;;;;;5040670;28;20139;-59
2023/01/14 13:28:34;;;;;;;3.38;1.60;;;8.50;85.70;;;;;;5051648;28;20053;-58
2023/01/14 13:31:33;;;;;;;4.22;1.75;;;8.50;85.90;;;;;;5050310;28;20040;-59
2023/01/14 13:34:36;;;;;;;5.97;2.50;;;8.50;86.00;;;;;;4987027;28;20568;-60
2023/01/14 13:37:26;;;;;;;8.85;2.90;;;8.50;86.00;;;;;;5050038;28;20049;-59
2023/01/14 13:39:56;;;;;;;7.28;2.83;;;8.40;86.10;;;;;;5048108;28;20053;-58
2023/01/14 13:42:27;;;;;;;5.93;2.22;;;8.50;86.30;;;;;;5052119;28;20231;-60
2023/01/14 13:44:56;;;;;;;6.45;2.17;;;8.40;86.60;;;;;;5051663;28;20105;-61
2023/01/14 13:47:28;;;;;;;4.18;1.98;;;8.40;86.90;;;;;;5052456;28;20434;-68